Time;durP1;ratioP1;P1;durP2;ratioP2;P2;SDS_P1;SDS_P2;PMS_P1;PMS_P2;Temp;Humidity;BMP_temperature;BMP_pressure;BME280_temperature;BME280_humidity;BME280_pressure;Samples;Min_cycle;Max_cycle;Signal;HPM_P1;HPM_P2
2023/03/31 00:02:00;;;;;;;3.70;2.50;;;14.00;99.90;;;;;;5032288;28;20423;-75
2023/03/31 00:04:27;;;;;;;3.10;2.80;;;14.10;99.90;;;;;;5032293;28;20427;-75
2023/03/31 00:06:53;;;;;;;2.70;2.57;;;14.10;99.90;;;;;;5015162;28;20438;-75
2023/03/31 00:09:23;;;;;;;4.27;2.60;;;14.10;99.90;;;;;;5014523;28;20976;-75
2023/03/31 00:11:50;;;;;;;4.03;2.53;;;14.10;99.90;;;;;;5012802;28;20428;-76
2023/03/31 00:14:17;;;;;;;3.47;2.10;;;14.10;99.90;;;;;;5013492;28;20420;-75
2023/03/31 00:16:43;;;;;;;3.00;2.40;;;14.10;99.90;;;;;;5011342;28;20764;-75
2023/03/31 00:19:16;;;;;;;4.30;2.20;;;14.20;99.90;;;;;;5031422;28;20679;-75
2023/03/31 00:21:46;;;;;;;2.73;2.53;;;14.10;99.90;;;;;;5032485;28;20524;-75
2023/03/31 00:24:14;;;;;;;2.60;2.43;;;14.20;99.90;;;;;;5012951;28;20410;-75
2023/03/31 00:26:40;;;;;;;4.90;3.20;;;14.10;99.90;;;;;;5026816;28;20435;-75
2023/03/31 00:29:07;;;;;;;3.07;2.40;;;14.10;99.90;;;;;;5031189;28;20448;-75
2023/03/31 00:31:33;;;;;;;2.87;1.97;;;14.10;99.90;;;;;;5024615;28;20194;-75
2023/03/31 00:33:59;;;;;;;2.67;2.30;;;14.10;99.90;;;;;;5021912;28;20429;-75
2023/03/31 00:36:28;;;;;;;3.13;2.60;;;14.10;99.90;;;;;;5031547;28;20257;-75
2023/03/31 00:38:58;;;;;;;3.17;2.87;;;14.00;99.90;;;;;;5032375;28;20494;-75
2023/03/31 00:41:24;;;;;;;3.40;2.43;;;14.00;99.90;;;;;;5031395;28;20768;-75
2023/03/31 00:44:13;;;;;;;2.33;2.13;;;14.10;99.90;;;;;;4997983;28;20432;-75
2023/03/31 00:46:48;;;;;;;6.37;2.80;;;14.10;99.90;;;;;;5013015;28;20790;-75
2023/03/31 00:49:39;;;;;;;5.03;2.70;;;14.10;99.90;;;;;;5013190;28;20451;-75
2023/03/31 00:52:22;;;;;;;2.70;2.50;;;14.10;99.90;;;;;;5031250;28;20926;-75
2023/03/31 00:54:52;;;;;;;4.40;2.77;;;14.00;99.90;;;;;;5030981;28;20522;-74
2023/03/31 00:57:19;;;;;;;2.40;2.30;;;14.00;99.90;;;;;;5031064;28;20580;-75
2023/03/31 00:59:56;;;;;;;2.90;2.70;;;13.90;99.90;;;;;;5025947;28;20436;-74
2023/03/31 01:02:24;;;;;;;2.40;2.30;;;14.00;99.90;;;;;;5025521;28;20432;-75
2023/03/31 01:04:54;;;;;;;4.30;2.20;;;13.80;99.90;;;;;;5030424;28;20561;-75
2023/03/31 01:07:32;;;;;;;4.80;2.40;;;13.80;99.90;;;;;;5032763;28;20401;-74
2023/03/31 01:10:02;;;;;;;2.53;2.43;;;13.80;99.90;;;;;;5030794;28;20449;-75
2023/03/31 01:12:31;;;;;;;2.83;2.50;;;13.70;99.90;;;;;;5031347;28;20442;-75
2023/03/31 01:14:58;;;;;;;1.90;1.80;;;13.70;99.90;;;;;;5031897;28;20436;-75
2023/03/31 01:17:27;;;;;;;3.33;3.03;;;13.60;99.90;;;;;;5031220;28;20428;-75
2023/03/31 01:20:11;;;;;;;2.47;2.30;;;13.50;99.90;;;;;;5001226;28;20560;-77
2023/03/31 01:23:01;;;;;;;5.13;2.90;;;13.50;99.90;;;;;;5017946;28;20786;-75
2023/03/31 01:25:52;;;;;;;3.03;2.50;;;13.30;99.90;;;;;;5012579;28;20419;-75
2023/03/31 01:28:20;;;;;;;2.17;2.03;;;13.30;99.90;;;;;;5016041;28;20815;-75
2023/03/31 01:31:01;;;;;;;2.67;2.47;;;13.40;99.90;;;;;;5032351;28;20415;-75
2023/03/31 01:33:45;;;;;;;3.50;2.80;;;13.40;99.90;;;;;;5014566;28;20967;-75
2023/03/31 01:36:26;;;;;;;4.67;2.63;;;13.40;99.90;;;;;;5012767;28;20483;-75
2023/03/31 01:39:10;;;;;;;3.00;2.70;;;13.40;99.90;;;;;;5032355;28;20403;-75
2023/03/31 01:42:05;;;;;;;3.33;3.03;;;13.30;99.90;;;;;;5029725;28;20467;-77
2023/03/31 01:45:00;;;;;;;4.33;2.90;;;13.20;99.90;;;;;;5024880;28;20426;-75
2023/03/31 01:47:46;;;;;;;2.67;2.43;;;13.30;99.90;;;;;;4997182;28;20498;-75
2023/03/31 01:50:28;;;;;;;2.80;2.60;;;13.30;99.90;;;;;;5023214;28;20460;-75
2023/03/31 01:53:33;;;;;;;2.43;2.27;;;13.40;99.90;;;;;;5031188;28;20439;-75
2023/03/31 01:56:07;;;;;;;2.73;2.53;;;13.40;99.90;;;;;;4980903;28;20441;-75
2023/03/31 01:58:39;;;;;;;2.60;2.40;;;13.40;99.90;;;;;;5014325;28;20458;-75
2023/03/31 02:01:12;;;;;;;4.07;2.37;;;13.50;99.90;;;;;;5010965;28;20874;-76
2023/03/31 02:03:46;;;;;;;2.77;2.50;;;13.50;99.90;;;;;;5027663;28;20430;-75
2023/03/31 02:06:19;;;;;;;3.07;2.77;;;13.50;99.90;;;;;;5033150;28;20418;-75
2023/03/31 02:08:51;;;;;;;6.87;2.57;;;13.50;99.90;;;;;;4996499;28;20471;-75
2023/03/31 02:11:17;;;;;;;5.70;2.97;;;13.50;99.90;;;;;;5031538;28;20747;-76
2023/03/31 02:13:46;;;;;;;2.87;2.67;;;13.60;99.90;;;;;;5026082;28;20451;-75
2023/03/31 02:16:17;;;;;;;3.43;2.30;;;13.50;99.90;;;;;;5033517;28;20544;-75
2023/03/31 02:18:46;;;;;;;4.07;2.57;;;13.60;99.90;;;;;;5035317;28;20396;-75
2023/03/31 02:21:13;;;;;;;3.30;2.57;;;13.40;99.90;;;;;;5031753;28;20424;-75
2023/03/31 02:23:40;;;;;;;2.90;2.70;;;13.50;99.90;;;;;;5012973;28;20427;-75
2023/03/31 02:26:17;;;;;;;3.57;3.00;;;13.50;99.90;;;;;;5014499;28;20778;-76
2023/03/31 02:28:43;;;;;;;2.67;2.50;;;13.60;99.90;;;;;;5020667;28;20460;-75
2023/03/31 02:31:23;;;;;;;3.83;2.77;;;13.70;99.90;;;;;;5000587;28;20421;-76
2023/03/31 02:33:49;;;;;;;4.67;2.93;;;13.60;99.90;;;;;;5035275;28;20428;-75
2023/03/31 02:36:15;;;;;;;2.80;2.60;;;13.40;99.90;;;;;;5033090;28;20505;-75
2023/03/31 02:38:46;;;;;;;2.87;2.53;;;13.40;99.90;;;;;;5032840;28;20432;-76
2023/03/31 02:41:12;;;;;;;3.13;2.80;;;13.30;99.90;;;;;;5015677;28;20509;-76
2023/03/31 02:43:38;;;;;;;3.03;2.83;;;13.30;99.90;;;;;;5035081;28;20438;-75
2023/03/31 02:46:04;;;;;;;5.70;2.63;;;13.30;99.90;;;;;;5033874;28;20188;-76
2023/03/31 02:48:34;;;;;;;4.70;2.57;;;13.40;99.90;;;;;;5031097;28;20451;-75
2023/03/31 02:51:21;;;;;;;3.03;2.80;;;13.20;99.90;;;;;;5033784;28;20400;-77
2023/03/31 02:53:56;;;;;;;5.03;3.27;;;12.90;99.90;;;;;;5014788;28;20447;-75
2023/03/31 02:56:49;;;;;;;6.40;3.27;;;13.10;99.90;;;;;;5031360;28;20439;-75
2023/03/31 02:59:52;;;;;;;3.10;2.90;;;13.20;99.90;;;;;;5014692;28;20432;-75
2023/03/31 03:02:48;;;;;;;4.47;3.30;;;13.10;99.90;;;;;;5011085;28;20466;-76
2023/03/31 03:05:27;;;;;;;6.10;3.13;;;13.10;99.90;;;;;;5032229;28;20923;-75
2023/03/31 03:08:17;;;;;;;4.73;4.33;;;13.10;99.90;;;;;;5034286;28;20408;-76
2023/03/31 03:11:16;;;;;;;4.00;3.70;;;13.10;99.90;;;;;;5033137;28;20886;-76
2023/03/31 03:14:11;;;;;;;3.57;3.37;;;13.20;99.90;;;;;;5015614;28;20430;-75
2023/03/31 03:16:43;;;;;;;4.13;3.10;;;13.20;99.90;;;;;;5006142;28;20484;-76
2023/03/31 03:19:16;;;;;;;5.40;3.50;;;13.40;99.90;;;;;;5031267;28;20916;-75
2023/03/31 03:21:44;;;;;;;3.63;3.30;;;13.40;99.90;;;;;;5034493;28;20412;-76
2023/03/31 03:24:10;;;;;;;4.13;3.27;;;13.40;99.90;;;;;;5032180;28;20447;-76
2023/03/31 03:26:36;;;;;;;4.13;2.90;;;13.30;99.90;;;;;;5032774;28;20465;-76
2023/03/31 03:29:01;;;;;;;3.30;3.00;;;13.40;99.90;;;;;;4998457;28;20606;-79
2023/03/31 03:31:27;;;;;;;6.10;3.40;;;13.30;99.90;;;;;;4999425;28;20181;-76
2023/03/31 03:33:53;;;;;;;3.53;3.23;;;13.30;99.90;;;;;;5031122;28;20185;-77
2023/03/31 03:36:19;;;;;;;3.10;2.90;;;13.40;99.90;;;;;;5031076;28;20514;-75
2023/03/31 03:38:45;;;;;;;5.80;3.80;;;13.40;99.90;;;;;;5015920;28;20178;-76
2023/03/31 03:41:11;;;;;;;3.60;3.30;;;13.30;99.90;;;;;;5013597;28;20490;-76
2023/03/31 03:43:36;;;;;;;5.93;5.50;;;13.20;99.90;;;;;;5018005;28;20181;-75
2023/03/31 03:46:02;;;;;;;3.33;2.63;;;13.20;99.90;;;;;;5027428;28;20306;-79
2023/03/31 03:48:28;;;;;;;7.90;7.10;;;13.30;99.90;;;;;;5031969;28;20202;-75
2023/03/31 03:50:54;;;;;;;4.83;3.00;;;13.40;99.90;;;;;;5031478;28;20192;-75
2023/03/31 03:53:20;;;;;;;6.90;5.90;;;13.40;99.90;;;;;;4996295;28;20202;-76
2023/03/31 03:55:49;;;;;;;5.13;4.70;;;13.50;99.90;;;;;;5014707;28;20420;-75
2023/03/31 03:58:16;;;;;;;3.57;2.20;;;13.50;99.90;;;;;;5031369;28;20926;-75
2023/03/31 04:00:42;;;;;;;5.03;4.63;;;13.50;99.90;;;;;;5032057;28;20421;-75
2023/03/31 04:03:07;;;;;;;5.20;3.00;;;13.30;99.90;;;;;;5032498;28;20399;-76
2023/03/31 04:05:33;;;;;;;4.13;3.10;;;13.40;99.90;;;;;;5031693;28;20185;-75
2023/03/31 04:07:59;;;;;;;3.70;2.80;;;13.30;99.90;;;;;;5032042;28;20184;-75
2023/03/31 04:10:24;;;;;;;3.77;2.60;;;13.30;99.90;;;;;;5030831;28;20201;-75
2023/03/31 04:12:50;;;;;;;3.40;2.40;;;13.40;99.90;;;;;;5031313;28;20428;-76
2023/03/31 04:15:16;;;;;;;5.50;3.03;;;13.40;99.90;;;;;;5031959;28;20168;-76
2023/03/31 04:17:49;;;;;;;5.43;4.93;;;13.40;99.90;;;;;;5006264;28;20233;-76
2023/03/31 04:20:16;;;;;;;3.20;2.50;;;13.50;99.90;;;;;;4998983;28;20208;-75
2023/03/31 04:22:46;;;;;;;3.67;2.50;;;13.60;99.90;;;;;;5033005;28;20416;-75
2023/03/31 04:25:16;;;;;;;3.93;2.50;;;13.40;99.90;;;;;;5027965;28;20528;-76
2023/03/31 04:27:49;;;;;;;5.40;2.63;;;13.20;99.90;;;;;;5014911;28;20459;-75
2023/03/31 04:30:21;;;;;;;4.60;3.73;;;13.20;99.90;;;;;;5021185;28;20494;-75
2023/03/31 04:32:52;;;;;;;4.43;3.10;;;13.10;99.90;;;;;;5031451;28;20419;-76
2023/03/31 04:35:19;;;;;;;5.60;3.00;;;13.00;99.90;;;;;;5016354;28;20424;-76
2023/03/31 04:37:51;;;;;;;5.63;3.67;;;13.10;99.90;;;;;;5001251;28;20431;-75
2023/03/31 04:40:17;;;;;;;5.17;3.00;;;13.00;99.90;;;;;;5024513;28;20813;-76
2023/03/31 04:42:43;;;;;;;8.70;4.00;;;13.10;99.90;;;;;;5032150;28;20453;-75
2023/03/31 04:45:11;;;;;;;3.03;2.70;;;13.10;99.90;;;;;;4999531;28;20436;-79
2023/03/31 04:47:37;;;;;;;5.07;4.87;;;13.00;99.90;;;;;;5003726;28;20427;-75
2023/03/31 04:50:03;;;;;;;3.23;2.93;;;13.10;99.90;;;;;;5008754;28;20507;-75
2023/03/31 04:52:29;;;;;;;6.77;6.30;;;13.10;99.90;;;;;;5027765;28;20447;-75
2023/03/31 04:54:55;;;;;;;6.57;6.07;;;13.30;99.90;;;;;;5029203;28;20424;-77
2023/03/31 04:57:20;;;;;;;4.03;3.10;;;13.10;99.90;;;;;;4997028;28;20267;-77
2023/03/31 04:59:46;;;;;;;4.20;3.03;;;13.10;99.90;;;;;;5030866;28;20180;-77
2023/03/31 05:02:12;;;;;;;7.00;6.40;;;13.10;99.90;;;;;;4993827;28;20224;-78
2023/03/31 05:04:40;;;;;;;3.90;3.13;;;12.80;99.90;;;;;;5027357;28;20210;-77
2023/03/31 05:07:05;;;;;;;4.60;3.80;;;12.90;99.90;;;;;;5010079;28;20435;-77
2023/03/31 05:09:31;;;;;;;4.10;3.07;;;12.90;99.90;;;;;;5030146;28;20453;-76
2023/03/31 05:11:57;;;;;;;4.53;4.20;;;12.70;99.90;;;;;;5007630;28;20626;-74
2023/03/31 05:14:22;;;;;;;6.30;4.07;;;12.70;99.90;;;;;;5016994;28;20186;-77
2023/03/31 05:16:48;;;;;;;5.00;3.60;;;12.70;99.90;;;;;;5003016;28;20210;-73
2023/03/31 05:19:14;;;;;;;3.47;3.17;;;12.70;99.90;;;;;;5014622;28;20269;-74
2023/03/31 05:21:39;;;;;;;4.80;2.80;;;12.70;99.90;;;;;;5002186;28;20241;-73
2023/03/31 05:24:05;;;;;;;4.27;3.33;;;12.40;99.90;;;;;;4999819;28;20183;-75
2023/03/31 05:26:31;;;;;;;4.60;3.50;;;12.40;99.90;;;;;;5020329;28;20237;-75
2023/03/31 05:28:57;;;;;;;4.23;3.60;;;12.30;99.90;;;;;;5031071;28;20469;-75
2023/03/31 05:31:23;;;;;;;6.00;5.40;;;12.20;99.90;;;;;;5015167;28;20660;-75
2023/03/31 05:33:48;;;;;;;5.27;4.57;;;12.10;99.90;;;;;;5003534;28;20261;-75
2023/03/31 05:36:16;;;;;;;3.90;3.40;;;12.30;99.90;;;;;;5027991;28;20434;-75
2023/03/31 05:38:42;;;;;;;4.80;4.50;;;12.20;99.90;;;;;;5015790;28;20187;-75
2023/03/31 05:41:09;;;;;;;4.90;3.20;;;12.40;99.90;;;;;;5026264;28;20426;-76
2023/03/31 05:43:36;;;;;;;5.53;5.20;;;12.40;99.90;;;;;;5028667;28;20414;-75
2023/03/31 05:46:02;;;;;;;6.70;6.20;;;12.50;99.90;;;;;;4999200;28;20442;-76
2023/03/31 05:48:28;;;;;;;7.10;6.00;;;12.50;99.90;;;;;;5027816;28;20905;-79
2023/03/31 05:50:58;;;;;;;4.43;3.73;;;12.50;99.90;;;;;;5015894;28;20931;-78
2023/03/31 05:53:25;;;;;;;6.33;5.73;;;12.70;99.90;;;;;;5018039;28;20227;-78
2023/03/31 05:56:00;;;;;;;4.13;3.83;;;13.00;99.90;;;;;;5035038;28;20553;-77
2023/03/31 05:58:27;;;;;;;3.70;3.50;;;13.30;99.90;;;;;;5032424;28;20816;-81
2023/03/31 06:01:08;;;;;;;6.63;4.93;;;13.50;99.90;;;;;;5033923;28;20506;-80
2023/03/31 06:03:36;;;;;;;2.90;2.50;;;13.70;99.90;;;;;;5016960;28;20423;-80
2023/03/31 06:06:04;;;;;;;6.13;5.63;;;13.90;99.90;;;;;;5011532;28;20431;-82
2023/03/31 06:08:30;;;;;;;3.83;3.63;;;14.00;99.90;;;;;;5004989;28;20640;-82
2023/03/31 06:10:57;;;;;;;6.00;3.60;;;14.10;99.90;;;;;;5002673;28;20761;-82
2023/03/31 06:13:23;;;;;;;9.80;6.87;;;14.00;99.90;;;;;;5001335;28;20420;-82
2023/03/31 06:15:56;;;;;;;4.10;3.00;;;14.10;99.90;;;;;;5000626;28;20428;-82
2023/03/31 06:18:23;;;;;;;3.30;3.00;;;14.10;99.90;;;;;;5015648;28;20585;-76
2023/03/31 06:20:50;;;;;;;3.43;3.33;;;14.00;99.90;;;;;;5024378;28;20425;-75
2023/03/31 06:23:16;;;;;;;4.03;3.73;;;13.80;99.90;;;;;;5029361;28;20585;-75
2023/03/31 06:25:41;;;;;;;3.27;3.00;;;13.50;99.90;;;;;;5034399;28;20511;-75
2023/03/31 06:28:07;;;;;;;3.67;3.07;;;13.40;99.90;;;;;;5035050;28;20173;-76
2023/03/31 06:30:33;;;;;;;3.50;2.90;;;13.20;99.90;;;;;;5034261;28;20550;-75
2023/03/31 06:32:59;;;;;;;3.47;3.37;;;13.00;99.90;;;;;;5034283;28;20233;-77
2023/03/31 06:35:25;;;;;;;3.80;3.50;;;12.80;99.90;;;;;;5015959;28;20418;-77
2023/03/31 06:37:51;;;;;;;3.33;2.50;;;12.70;99.90;;;;;;5034444;28;20688;-75
2023/03/31 06:40:17;;;;;;;3.30;3.00;;;12.60;99.90;;;;;;5016904;28;20202;-75
2023/03/31 06:42:43;;;;;;;4.10;3.70;;;12.50;99.90;;;;;;5034518;28;20480;-76
2023/03/31 06:45:09;;;;;;;4.73;2.93;;;12.60;99.90;;;;;;5035188;28;20406;-75
2023/03/31 06:47:37;;;;;;;3.40;2.40;;;12.60;99.90;;;;;;5033044;28;20257;-75
2023/03/31 06:50:03;;;;;;;4.67;2.87;;;12.60;99.90;;;;;;5033854;28;20462;-75
2023/03/31 06:52:30;;;;;;;3.80;2.80;;;12.60;99.90;;;;;;5015579;28;20429;-75
2023/03/31 06:54:56;;;;;;;3.50;3.30;;;12.50;99.90;;;;;;5032232;28;20428;-75
2023/03/31 06:57:24;;;;;;;2.40;2.27;;;12.50;99.90;;;;;;5033065;28;20419;-76
2023/03/31 06:59:50;;;;;;;3.40;3.20;;;12.50;99.90;;;;;;5016307;28;20221;-76
2023/03/31 07:02:15;;;;;;;2.63;2.40;;;12.50;99.90;;;;;;5016072;28;20454;-75
2023/03/31 07:52:23;;;;;;;3.20;3.00;;;12.00;99.90;;;;;;5183963;23;20471;31
2023/03/31 07:54:50;;;;;;;3.50;3.07;;;12.10;99.90;;;;;;4857329;29;20484;-84
2023/03/31 07:57:16;;;;;;;3.07;2.97;;;12.10;99.90;;;;;;4843512;29;20513;-84
2023/03/31 07:59:42;;;;;;;2.87;2.77;;;12.00;99.90;;;;;;4842462;29;20831;-83
2023/03/31 08:02:12;;;;;;;3.30;3.10;;;11.90;99.90;;;;;;4842792;29;20863;-84
2023/03/31 08:04:41;;;;;;;3.40;3.20;;;11.80;99.90;;;;;;4842311;29;20517;-82
2023/03/31 08:07:10;;;;;;;2.70;2.60;;;11.60;99.90;;;;;;4843001;29;20412;-83
2023/03/31 08:09:36;;;;;;;3.23;3.03;;;11.60;99.90;;;;;;4842285;29;20879;-83
2023/03/31 08:12:03;;;;;;;5.20;5.00;;;11.70;99.90;;;;;;4842892;29;20469;-84
2023/03/31 08:14:29;;;;;;;5.30;5.00;;;11.80;99.90;;;;;;4842902;29;20762;-84
2023/03/31 08:16:56;;;;;;;2.30;2.20;;;11.90;99.90;;;;;;4840927;29;20437;-84
2023/03/31 08:19:23;;;;;;;6.30;5.90;;;12.00;99.90;;;;;;4842723;29;20188;-84
2023/03/31 08:29:11;;;;;;;2.90;2.70;;;12.40;99.90;;;;;;5101024;23;20495;-84
2023/03/31 08:31:37;;;;;;;3.40;3.30;;;12.50;99.90;;;;;;4916259;29;20437;-84
2023/03/31 08:34:03;;;;;;;3.80;3.60;;;12.60;99.90;;;;;;4917010;29;20410;-84
2023/03/31 08:36:29;;;;;;;3.03;2.87;;;12.50;99.90;;;;;;4899889;29;20420;-84
2023/03/31 08:38:55;;;;;;;3.10;3.00;;;12.50;99.90;;;;;;4915118;29;20531;-84
2023/03/31 08:41:46;;;;;;;3.00;2.90;;;12.70;99.90;;;;;;4915598;29;20216;-84
2023/03/31 08:44:16;;;;;;;3.20;3.00;;;12.70;99.90;;;;;;4917066;29;20516;-84
2023/03/31 08:46:42;;;;;;;3.27;2.97;;;12.70;99.90;;;;;;4913755;29;20506;-83
2023/03/31 08:49:15;;;;;;;3.23;3.13;;;12.70;99.90;;;;;;4914314;29;20481;-84
2023/03/31 08:51:47;;;;;;;3.70;3.40;;;12.90;99.90;;;;;;4915781;29;20819;-84
2023/03/31 08:54:30;;;;;;;3.50;3.20;;;12.90;99.90;;;;;;4916008;29;20431;-84
2023/03/31 08:57:00;;;;;;;3.43;3.20;;;12.90;99.90;;;;;;4915566;29;20783;-84
2023/03/31 08:59:37;;;;;;;3.53;3.30;;;13.10;99.90;;;;;;4898905;29;20785;-83
2023/03/31 09:02:13;;;;;;;3.40;3.20;;;13.20;99.90;;;;;;4916145;29;20408;-84
2023/03/31 09:04:57;;;;;;;3.20;3.10;;;13.20;99.90;;;;;;4915288;29;20431;-84
2023/03/31 09:07:44;;;;;;;5.43;4.50;;;13.30;99.90;;;;;;4916618;29;20464;-84
2023/03/31 09:10:38;;;;;;;3.93;3.83;;;13.40;99.90;;;;;;4915530;29;20508;-84
2023/03/31 09:13:16;;;;;;;3.40;3.30;;;13.50;99.90;;;;;;4898500;29;20444;-84
2023/03/31 09:26:02;;;;;;;3.37;3.17;;;13.40;99.90;;;;;;5047867;23;20497;-75
2023/03/31 09:28:38;;;;;;;4.93;4.63;;;13.40;99.90;;;;;;4893420;29;20444;-75
2023/03/31 09:31:18;;;;;;;3.57;3.33;;;13.40;99.90;;;;;;4878438;29;20548;-75
2023/03/31 09:33:45;;;;;;;2.30;2.20;;;13.40;99.90;;;;;;4885564;29;20448;-75
2023/03/31 09:36:15;;;;;;;4.40;4.17;;;13.40;99.90;;;;;;4897391;29;20421;-75
2023/03/31 09:38:43;;;;;;;2.13;2.03;;;13.40;99.90;;;;;;4896172;29;20469;-75
2023/03/31 09:41:10;;;;;;;2.80;2.50;;;13.40;99.90;;;;;;4896118;29;20934;-75
2023/03/31 09:43:40;;;;;;;3.50;3.40;;;13.50;99.90;;;;;;4895963;29;20419;-75
2023/03/31 09:46:20;;;;;;;3.27;2.97;;;13.60;99.90;;;;;;4896538;29;20906;-75
2023/03/31 09:49:11;;;;;;;2.53;2.33;;;13.80;99.90;;;;;;4896746;29;20449;-75
2023/03/31 09:51:41;;;;;;;3.40;3.13;;;13.80;99.90;;;;;;4895864;29;20829;-75
2023/03/31 09:54:24;;;;;;;3.00;2.90;;;14.00;99.90;;;;;;4897261;29;20467;-75
2023/03/31 09:56:54;;;;;;;3.77;3.47;;;14.10;99.90;;;;;;4895050;29;20546;-75
2023/03/31 09:59:22;;;;;;;3.33;3.03;;;14.10;99.90;;;;;;4895817;29;20444;-75
2023/03/31 10:01:58;;;;;;;3.77;3.50;;;14.30;99.90;;;;;;4896666;29;20411;-75
2023/03/31 10:04:31;;;;;;;3.97;3.53;;;14.30;99.90;;;;;;4894380;29;20434;-75
2023/03/31 10:07:06;;;;;;;3.00;2.80;;;14.30;99.90;;;;;;4896284;29;20482;-75
2023/03/31 10:09:36;;;;;;;3.77;3.47;;;14.40;99.90;;;;;;4879877;29;20463;-76
2023/03/31 10:12:05;;;;;;;4.60;4.30;;;14.50;99.90;;;;;;4880147;29;21082;-76
2023/03/31 10:14:38;;;;;;;5.43;4.77;;;14.60;99.90;;;;;;4876802;29;20437;-76
2023/03/31 10:17:07;;;;;;;2.80;2.50;;;14.60;99.90;;;;;;4877073;29;20424;-76
2023/03/31 10:19:36;;;;;;;3.13;2.90;;;14.70;99.90;;;;;;4895527;29;20657;-76
2023/03/31 10:22:27;;;;;;;2.97;2.77;;;14.90;99.90;;;;;;4894741;29;20433;-76
2023/03/31 10:24:53;;;;;;;3.63;3.23;;;15.00;99.90;;;;;;4895984;29;20563;-76
2023/03/31 10:27:27;;;;;;;3.93;3.63;;;15.10;99.90;;;;;;4900430;29;20426;-79
2023/03/31 10:29:56;;;;;;;6.27;4.50;;;15.20;99.90;;;;;;4899509;29;20600;-76
2023/03/31 10:38:51;;;;;;;4.30;3.63;;;15.50;99.90;;;;;;5054109;23;20484;-84
2023/03/31 10:41:23;;;;;;;4.83;4.17;;;15.50;99.90;;;;;;4916443;29;20458;-85
2023/03/31 10:43:51;;;;;;;5.57;5.17;;;15.50;99.90;;;;;;4918465;29;20433;-85
2023/03/31 10:46:17;;;;;;;5.10;4.60;;;15.50;99.90;;;;;;4900610;29;20952;-85
2023/03/31 10:52:01;;;;;;;7.27;4.00;;;15.40;99.90;;;;;;5053565;23;20498;-83
2023/03/31 11:06:15;;;;;;;5.73;3.37;;;14.60;99.90;;;;;;5076925;23;23731;-76
2023/03/31 11:13:11;;;;;;;8.20;3.87;;;14.50;99.90;;;;;;5170396;23;20587;-76
2023/03/31 11:16:00;;;;;;;6.03;3.70;;;14.60;99.90;;;;;;4865593;29;20508;-76
2023/03/31 11:18:52;;;;;;;5.00;4.47;;;14.70;99.90;;;;;;4895026;29;20830;-79
2023/03/31 11:21:25;;;;;;;5.40;4.70;;;14.70;99.90;;;;;;4896093;29;20528;-77
2023/03/31 11:24:17;;;;;;;7.23;4.70;;;14.90;99.90;;;;;;4893484;29;20484;-76
2023/03/31 11:27:17;;;;;;;4.70;3.00;;;15.20;99.90;;;;;;4884264;29;20453;-77
2023/03/31 11:30:14;;;;;;;6.17;3.23;;;15.60;99.90;;;;;;4889079;29;20842;-78
2023/03/31 11:33:12;;;;;;;9.43;3.80;;;16.00;99.90;;;;;;4880940;29;20867;-78
2023/03/31 11:36:05;;;;;;;5.30;3.27;;;16.40;99.90;;;;;;4886805;29;20431;-78
2023/03/31 11:38:47;;;;;;;3.33;3.00;;;16.60;99.90;;;;;;4883670;29;20891;-76
2023/03/31 11:41:37;;;;;;;7.50;2.37;;;16.60;99.90;;;;;;4881129;29;20870;-76
2023/03/31 11:44:08;;;;;;;4.30;4.10;;;16.30;99.90;;;;;;4890561;29;20460;-77
2023/03/31 11:46:48;;;;;;;3.10;2.93;;;15.70;99.90;;;;;;4880352;29;20396;-76
2023/03/31 11:49:40;;;;;;;2.93;2.83;;;15.20;99.90;;;;;;4898058;29;20449;-77
2023/03/31 11:52:21;;;;;;;2.80;2.60;;;14.90;99.90;;;;;;4879506;29;20441;-80
2023/03/31 11:54:57;;;;;;;3.57;2.60;;;14.60;99.90;;;;;;4896840;29;20541;-78
2023/03/31 11:57:26;;;;;;;3.23;2.93;;;14.40;99.90;;;;;;4894981;29;20477;-77
2023/03/31 11:59:59;;;;;;;4.50;2.70;;;14.30;99.90;;;;;;4893173;29;20946;-76
2023/03/31 12:02:47;;;;;;;2.73;2.53;;;14.10;99.90;;;;;;4881349;29;20427;-78
2023/03/31 12:05:15;;;;;;;2.67;2.50;;;14.00;99.90;;;;;;4894818;29;20427;-77
2023/03/31 12:08:10;;;;;;;2.73;2.30;;;14.00;99.90;;;;;;4903871;29;20462;-77
2023/03/31 12:10:40;;;;;;;2.40;2.20;;;14.00;99.90;;;;;;4920900;29;20485;-76
2023/03/31 12:13:41;;;;;;;2.70;2.60;;;14.00;99.90;;;;;;4931034;29;20476;-78
2023/03/31 12:16:57;;;;;;;2.10;1.80;;;14.00;99.90;;;;;;4912992;29;20470;-76
2023/03/31 12:19:35;;;;;;;3.30;3.07;;;13.90;99.90;;;;;;4862104;29;20526;-78
2023/03/31 12:22:14;;;;;;;3.80;2.47;;;13.90;99.90;;;;;;4896768;29;20415;-78
2023/03/31 12:24:40;;;;;;;2.90;2.80;;;14.00;99.90;;;;;;4895167;29;20973;-78
2023/03/31 12:27:11;;;;;;;2.80;2.60;;;14.10;99.90;;;;;;4879953;29;20522;-77
2023/03/31 12:29:54;;;;;;;2.80;2.70;;;14.10;99.90;;;;;;4896824;29;20446;-79
2023/03/31 12:32:25;;;;;;;3.33;3.03;;;14.30;99.90;;;;;;4877078;29;20510;-76
2023/03/31 12:35:06;;;;;;;3.00;2.70;;;14.40;99.90;;;;;;4896951;29;20817;-77
2023/03/31 12:37:53;;;;;;;3.20;2.90;;;14.50;99.90;;;;;;4895757;29;20494;-77
2023/03/31 12:40:35;;;;;;;3.03;2.60;;;14.60;99.90;;;;;;4896758;29;20424;-76
2023/03/31 12:43:07;;;;;;;3.23;3.00;;;14.70;99.90;;;;;;4897480;29;20431;-76
2023/03/31 12:45:38;;;;;;;2.57;2.37;;;14.80;99.90;;;;;;4890261;29;21121;-77
2023/03/31 12:48:12;;;;;;;3.77;2.77;;;14.90;99.90;;;;;;4883694;29;22057;-76
2023/03/31 12:57:29;;;;;;;4.13;3.40;;;15.00;99.90;;;;;;4751109;23;20528;-75
2023/03/31 13:00:11;;;;;;;3.20;3.10;;;15.00;99.90;;;;;;4897543;29;20429;-76
2023/03/31 13:02:38;;;;;;;4.87;3.80;;;15.10;99.90;;;;;;4872604;29;20433;-76
2023/03/31 13:05:37;;;;;;;4.57;3.53;;;15.10;99.90;;;;;;4896571;29;20424;-77
2023/03/31 13:08:07;;;;;;;3.20;2.90;;;15.10;99.90;;;;;;4896362;29;20471;-76
2023/03/31 13:10:55;;;;;;;4.40;2.90;;;15.00;99.90;;;;;;4895953;29;20476;-74
2023/03/31 13:13:21;;;;;;;3.70;3.13;;;15.00;99.90;;;;;;4896318;29;20472;-75
2023/03/31 13:15:54;;;;;;;5.13;3.03;;;14.90;99.90;;;;;;4897024;29;20482;-76
2023/03/31 13:18:21;;;;;;;3.07;2.80;;;14.90;99.90;;;;;;4897334;29;20175;-76
2023/03/31 13:20:59;;;;;;;3.43;3.20;;;14.90;99.90;;;;;;4897214;29;20927;-76
2023/03/31 13:23:26;;;;;;;4.57;3.10;;;15.00;99.90;;;;;;4896357;29;20425;-78
2023/03/31 13:25:56;;;;;;;3.30;3.00;;;14.90;99.90;;;;;;4895195;29;20517;-79
2023/03/31 13:28:21;;;;;;;3.00;2.67;;;15.00;99.90;;;;;;4897378;29;20980;-79
2023/03/31 13:30:59;;;;;;;4.47;3.10;;;15.10;99.90;;;;;;4897225;29;20609;-79
2023/03/31 13:37:18;;;;;;;27.20;19.00;;;15.10;99.90;;;;;;4877470;23;20913;-78
2023/03/31 13:40:25;;;;;;;115.53;74.07;;;15.10;99.90;;;;;;4894965;29;20486;-78
2023/03/31 13:43:30;;;;;;;14.63;10.10;;;15.00;99.90;;;;;;4895450;29;20482;-77
2023/03/31 13:46:22;;;;;;;5.00;4.50;;;15.00;99.90;;;;;;4890015;29;20436;-77
2023/03/31 13:49:39;;;;;;;3.70;3.40;;;15.00;99.90;;;;;;4879865;29;20986;-77
2023/03/31 13:52:11;;;;;;;5.17;3.30;;;15.10;99.90;;;;;;4837247;29;20437;-78
2023/03/31 13:54:55;;;;;;;2.97;2.77;;;15.00;99.90;;;;;;4889953;29;20523;-77
2023/03/31 13:57:45;;;;;;;5.33;3.27;;;15.10;99.90;;;;;;4895047;29;20444;-78
2023/03/31 14:00:26;;;;;;;5.67;3.60;;;15.10;99.90;;;;;;4895876;29;20446;-79
2023/03/31 14:03:18;;;;;;;5.47;3.77;;;15.30;99.90;;;;;;4898237;29;20522;-83
2023/03/31 14:05:46;;;;;;;5.97;3.50;;;15.40;99.90;;;;;;4882375;29;20436;-82
2023/03/31 14:08:38;;;;;;;7.00;3.30;;;15.50;99.90;;;;;;4896989;29;20532;-82
2023/03/31 14:11:21;;;;;;;4.27;3.40;;;15.50;99.90;;;;;;4899429;29;20484;-83
2023/03/31 14:14:02;;;;;;;4.07;2.90;;;15.60;99.90;;;;;;4900524;29;20418;-82
2023/03/31 14:16:32;;;;;;;3.47;3.00;;;15.70;99.90;;;;;;4899487;29;20441;-82
2023/03/31 14:19:30;;;;;;;3.83;3.40;;;15.70;99.90;;;;;;4897296;29;20533;-81
2023/03/31 14:22:27;;;;;;;88.40;69.57;;;15.70;99.90;;;;;;4875715;29;20449;-84
2023/03/31 14:25:08;;;;;;;22.07;14.90;;;15.60;99.90;;;;;;4896545;29;20989;-85
2023/03/31 14:28:01;;;;;;;6.93;3.60;;;15.60;99.90;;;;;;4897496;29;20493;-83
2023/03/31 14:30:37;;;;;;;3.27;2.90;;;15.50;99.90;;;;;;4899542;29;20529;-83
2023/03/31 14:33:33;;;;;;;5.77;3.40;;;15.50;99.90;;;;;;4897292;29;20455;-83
2023/03/31 14:36:20;;;;;;;3.97;3.63;;;15.50;99.90;;;;;;4898103;29;20443;-82
2023/03/31 14:38:46;;;;;;;6.27;3.73;;;15.60;99.90;;;;;;4899601;29;20541;-82
2023/03/31 14:41:20;;;;;;;4.20;3.17;;;15.70;99.90;;;;;;4899504;29;20910;-82
2023/03/31 14:43:49;;;;;;;5.60;2.90;;;15.80;99.90;;;;;;4898833;29;20185;-82
2023/03/31 14:46:20;;;;;;;2.70;2.50;;;15.90;99.90;;;;;;4898284;29;20946;-82
2023/03/31 14:48:48;;;;;;;4.00;3.00;;;15.90;99.90;;;;;;4900352;29;20406;-82
2023/03/31 14:51:15;;;;;;;4.73;3.03;;;15.90;99.90;;;;;;4898383;29;21038;-82
2023/03/31 14:53:44;;;;;;;3.37;3.03;;;15.90;99.90;;;;;;4899432;29;20434;-82
2023/03/31 14:56:14;;;;;;;6.10;3.07;;;15.90;99.90;;;;;;4899046;29;20447;-82
2023/03/31 14:58:52;;;;;;;3.30;3.00;;;15.90;99.90;;;;;;4899174;29;20841;-82
2023/03/31 15:01:24;;;;;;;5.13;2.93;;;15.80;99.90;;;;;;4898556;29;20518;-82